sensor_id;sensor_type;location;lat;lon;timestamp;temperature;humidity
22112;DHT22;11222;50.872;4.312;2022-11-20T00:00:35;4.80;99.90
22112;DHT22;11222;50.872;4.312;2022-11-20T00:03:01;4.80;99.90
22112;DHT22;11222;50.872;4.312;2022-11-20T00:05:27;4.80;99.90
22112;DHT22;11222;50.872;4.312;2022-11-20T00:07:52;4.90;99.90
22112;DHT22;11222;50.872;4.312;2022-11-20T00:10:18;5.00;99.90
22112;DHT22;11222;50.872;4.312;2022-11-20T00:12:44;5.00;99.90
22112;DHT22;11222;50.872;4.312;2022-11-20T00:15:10;5.10;99.90
22112;DHT22;11222;50.872;4.312;2022-11-20T00:17:36;5.10;99.90
22112;DHT22;11222;50.872;4.312;2022-11-20T00:20:01;5.20;99.90
22112;DHT22;11222;50.872;4.312;2022-11-20T00:22:27;5.10;99.90
22112;DHT22;11222;50.872;4.312;2022-11-20T00:24:53;5.20;99.90
22112;DHT22;11222;50.872;4.312;2022-11-20T00:27:18;5.30;99.90
22112;DHT22;11222;50.872;4.312;2022-11-20T00:29:44;5.30;99.90
22112;DHT22;11222;50.872;4.312;2022-11-20T00:32:10;5.30;99.90
22112;DHT22;11222;50.872;4.312;2022-11-20T00:34:35;5.30;99.90
22112;DHT22;11222;50.872;4.312;2022-11-20T00:37:01;5.20;99.90
22112;DHT22;11222;50.872;4.312;2022-11-20T00:39:27;5.20;99.90
22112;DHT22;11222;50.872;4.312;2022-11-20T00:41:52;5.10;99.90
22112;DHT22;11222;50.872;4.312;2022-11-20T00:44:18;5.10;99.90
22112;DHT22;11222;50.872;4.312;2022-11-20T00:46:44;5.20;99.90
22112;DHT22;11222;50.872;4.312;2022-11-20T00:49:09;5.20;99.90
22112;DHT22;11222;50.872;4.312;2022-11-20T00:51:35;5.20;99.90
22112;DHT22;11222;50.872;4.312;2022-11-20T00:54:01;5.20;99.90
22112;DHT22;11222;50.872;4.312;2022-11-20T00:56:27;5.20;99.90
22112;DHT22;11222;50.872;4.312;2022-11-20T00:58:53;5.20;99.90
22112;DHT22;11222;50.872;4.312;2022-11-20T01:01:22;5.10;99.90
22112;DHT22;11222;50.872;4.312;2022-11-20T01:03:51;5.10;99.90
22112;DHT22;11222;50.872;4.312;2022-11-20T01:06:35;5.10;99.90
22112;DHT22;11222;50.872;4.312;2022-11-20T01:09:09;5.20;99.90
22112;DHT22;11222;50.872;4.312;2022-11-20T01:11:38;5.20;99.90
22112;DHT22;11222;50.872;4.312;2022-11-20T01:14:09;5.20;99.90
22112;DHT22;11222;50.872;4.312;2022-11-20T01:16:37;5.30;99.90
22112;DHT22;11222;50.872;4.312;2022-11-20T01:19:05;5.30;99.90
22112;DHT22;11222;50.872;4.312;2022-11-20T01:21:36;5.30;99.90
22112;DHT22;11222;50.872;4.312;2022-11-20T01:24:04;5.30;99.90
22112;DHT22;11222;50.872;4.312;2022-11-20T01:26:32;5.30;99.90
22112;DHT22;11222;50.872;4.312;2022-11-20T01:28:59;5.20;99.90
22112;DHT22;11222;50.872;4.312;2022-11-20T01:31:33;5.20;99.90
22112;DHT22;11222;50.872;4.312;2022-11-20T01:34:06;5.20;99.90
22112;DHT22;11222;50.872;4.312;2022-11-20T01:36:34;5.20;99.90
22112;DHT22;11222;50.872;4.312;2022-11-20T01:39:04;5.20;99.90
22112;DHT22;11222;50.872;4.312;2022-11-20T01:41:32;5.20;99.90
22112;DHT22;11222;50.872;4.312;2022-11-20T01:44:20;5.20;99.90
22112;DHT22;11222;50.872;4.312;2022-11-20T01:46:59;5.20;99.90
22112;DHT22;11222;50.872;4.312;2022-11-20T01:49:32;5.40;99.90
22112;DHT22;11222;50.872;4.312;2022-11-20T01:52:15;5.50;99.90
22112;DHT22;11222;50.872;4.312;2022-11-20T01:55:09;5.50;99.90
22112;DHT22;11222;50.872;4.312;2022-11-20T01:57:35;5.60;99.90
22112;DHT22;11222;50.872;4.312;2022-11-20T02:00:20;5.60;99.90
22112;DHT22;11222;50.872;4.312;2022-11-20T02:02:58;5.60;99.90
22112;DHT22;11222;50.872;4.312;2022-11-20T02:05:35;5.60;99.90
22112;DHT22;11222;50.872;4.312;2022-11-20T02:08:03;5.60;99.90
22112;DHT22;11222;50.872;4.312;2022-11-20T02:10:30;5.50;99.90
22112;DHT22;11222;50.872;4.312;2022-11-20T02:12:57;5.50;99.90
22112;DHT22;11222;50.872;4.312;2022-11-20T02:15:42;5.50;99.90
22112;DHT22;11222;50.872;4.312;2022-11-20T02:18:09;5.50;99.90
22112;DHT22;11222;50.872;4.312;2022-11-20T02:20:36;5.60;99.90
22112;DHT22;11222;50.872;4.312;2022-11-20T02:23:09;5.60;99.90
22112;DHT22;11222;50.872;4.312;2022-11-20T02:25:37;5.70;99.90
22112;DHT22;11222;50.872;4.312;2022-11-20T02:28:04;5.60;99.90
22112;DHT22;11222;50.872;4.312;2022-11-20T02:30:30;5.60;99.90
22112;DHT22;11222;50.872;4.312;2022-11-20T02:32:57;5.50;99.90
22112;DHT22;11222;50.872;4.312;2022-11-20T02:37:50;5.40;99.90
22112;DHT22;11222;50.872;4.312;2022-11-20T02:40:18;5.40;99.90
22112;DHT22;11222;50.872;4.312;2022-11-20T02:42:44;5.40;99.90
22112;DHT22;11222;50.872;4.312;2022-11-20T02:45:10;5.30;99.90
22112;DHT22;11222;50.872;4.312;2022-11-20T02:47:36;5.30;99.90
22112;DHT22;11222;50.872;4.312;2022-11-20T02:50:03;5.30;99.90
22112;DHT22;11222;50.872;4.312;2022-11-20T02:52:30;5.20;99.90
22112;DHT22;11222;50.872;4.312;2022-11-20T02:54:56;5.20;99.90
22112;DHT22;11222;50.872;4.312;2022-11-20T02:57:21;5.30;99.90
22112;DHT22;11222;50.872;4.312;2022-11-20T02:59:47;5.30;99.90
22112;DHT22;11222;50.872;4.312;2022-11-20T03:02:12;5.40;99.90
22112;DHT22;11222;50.872;4.312;2022-11-20T03:04:38;5.40;99.90
22112;DHT22;11222;50.872;4.312;2022-11-20T03:07:04;5.50;99.90
22112;DHT22;11222;50.872;4.312;2022-11-20T03:09:30;5.50;99.90
22112;DHT22;11222;50.872;4.312;2022-11-20T03:11:56;5.70;99.90
22112;DHT22;11222;50.872;4.312;2022-11-20T03:14:22;5.70;99.90
22112;DHT22;11222;50.872;4.312;2022-11-20T03:16:47;5.80;99.90
22112;DHT22;11222;50.872;4.312;2022-11-20T03:19:13;5.90;99.90
22112;DHT22;11222;50.872;4.312;2022-11-20T03:21:39;5.80;99.90
22112;DHT22;11222;50.872;4.312;2022-11-20T03:24:05;5.80;99.90
22112;DHT22;11222;50.872;4.312;2022-11-20T03:26:31;5.80;99.90
22112;DHT22;11222;50.872;4.312;2022-11-20T03:28:59;5.80;99.90
22112;DHT22;11222;50.872;4.312;2022-11-20T03:31:30;5.90;99.90
22112;DHT22;11222;50.872;4.312;2022-11-20T03:33:58;5.90;99.90
22112;DHT22;11222;50.872;4.312;2022-11-20T03:36:24;5.80;99.90
22112;DHT22;11222;50.872;4.312;2022-11-20T03:38:50;5.90;99.90
22112;DHT22;11222;50.872;4.312;2022-11-20T03:41:21;5.90;99.90
22112;DHT22;11222;50.872;4.312;2022-11-20T03:44:09;6.00;99.90
22112;DHT22;11222;50.872;4.312;2022-11-20T03:46:35;6.00;99.90
22112;DHT22;11222;50.872;4.312;2022-11-20T03:49:01;5.90;99.90
22112;DHT22;11222;50.872;4.312;2022-11-20T03:51:30;6.00;99.90
22112;DHT22;11222;50.872;4.312;2022-11-20T03:53:58;6.00;99.90
22112;DHT22;11222;50.872;4.312;2022-11-20T03:56:27;6.00;99.90
22112;DHT22;11222;50.872;4.312;2022-11-20T03:58:53;6.00;99.90
22112;DHT22;11222;50.872;4.312;2022-11-20T04:01:21;6.00;99.90
22112;DHT22;11222;50.872;4.312;2022-11-20T04:03:47;6.10;99.90
22112;DHT22;11222;50.872;4.312;2022-11-20T04:06:24;6.00;99.90
22112;DHT22;11222;50.872;4.312;2022-11-20T04:08:50;6.00;99.90
22112;DHT22;11222;50.872;4.312;2022-11-20T04:11:18;6.00;99.90
22112;DHT22;11222;50.872;4.312;2022-11-20T04:13:54;5.80;99.90
22112;DHT22;11222;50.872;4.312;2022-11-20T04:16:21;5.80;99.90
22112;DHT22;11222;50.872;4.312;2022-11-20T04:18:46;5.80;99.90
22112;DHT22;11222;50.872;4.312;2022-11-20T04:21:12;5.90;99.90
22112;DHT22;11222;50.872;4.312;2022-11-20T04:23:38;5.80;99.90
22112;DHT22;11222;50.872;4.312;2022-11-20T04:26:07;5.80;99.90
22112;DHT22;11222;50.872;4.312;2022-11-20T04:28:33;5.80;99.90
22112;DHT22;11222;50.872;4.312;2022-11-20T04:31:07;5.80;99.90
22112;DHT22;11222;50.872;4.312;2022-11-20T04:33:34;5.80;99.90
22112;DHT22;11222;50.872;4.312;2022-11-20T04:36:04;5.80;99.90
22112;DHT22;11222;50.872;4.312;2022-11-20T04:38:31;5.80;99.90
22112;DHT22;11222;50.872;4.312;2022-11-20T04:41:01;5.80;99.90
22112;DHT22;11222;50.872;4.312;2022-11-20T04:43:27;5.90;99.90
22112;DHT22;11222;50.872;4.312;2022-11-20T04:45:54;6.00;99.90
22112;DHT22;11222;50.872;4.312;2022-11-20T04:48:20;6.00;99.90
22112;DHT22;11222;50.872;4.312;2022-11-20T04:50:45;6.10;99.90
22112;DHT22;11222;50.872;4.312;2022-11-20T04:53:12;6.00;99.90
22112;DHT22;11222;50.872;4.312;2022-11-20T04:55:37;6.00;99.90
22112;DHT22;11222;50.872;4.312;2022-11-20T04:58:03;6.00;99.90
22112;DHT22;11222;50.872;4.312;2022-11-20T05:00:29;6.00;99.90
22112;DHT22;11222;50.872;4.312;2022-11-20T05:02:55;6.00;99.90
22112;DHT22;11222;50.872;4.312;2022-11-20T05:05:20;6.00;99.90
22112;DHT22;11222;50.872;4.312;2022-11-20T05:07:46;6.10;99.90
22112;DHT22;11222;50.872;4.312;2022-11-20T05:10:11;6.10;99.90
22112;DHT22;11222;50.872;4.312;2022-11-20T05:12:37;6.20;99.90
22112;DHT22;11222;50.872;4.312;2022-11-20T05:15:03;6.20;99.90
22112;DHT22;11222;50.872;4.312;2022-11-20T05:17:29;6.30;99.90
22112;DHT22;11222;50.872;4.312;2022-11-20T05:19:54;6.40;99.90
22112;DHT22;11222;50.872;4.312;2022-11-20T05:22:20;6.30;99.90
22112;DHT22;11222;50.872;4.312;2022-11-20T05:24:46;6.40;99.90
22112;DHT22;11222;50.872;4.312;2022-11-20T05:27:12;6.40;99.90
22112;DHT22;11222;50.872;4.312;2022-11-20T05:29:37;6.40;99.90
22112;DHT22;11222;50.872;4.312;2022-11-20T05:32:03;6.40;99.90
22112;DHT22;11222;50.872;4.312;2022-11-20T05:34:31;6.50;99.90
22112;DHT22;11222;50.872;4.312;2022-11-20T05:36:57;6.50;99.90
22112;DHT22;11222;50.872;4.312;2022-11-20T05:39:22;6.50;99.90
22112;DHT22;11222;50.872;4.312;2022-11-20T05:41:48;6.40;99.90
22112;DHT22;11222;50.872;4.312;2022-11-20T05:44:33;6.40;99.90
22112;DHT22;11222;50.872;4.312;2022-11-20T05:46:59;6.30;99.90
22112;DHT22;11222;50.872;4.312;2022-11-20T05:49:25;6.30;99.90
22112;DHT22;11222;50.872;4.312;2022-11-20T05:51:50;6.30;99.90
22112;DHT22;11222;50.872;4.312;2022-11-20T05:54:16;6.20;99.90
22112;DHT22;11222;50.872;4.312;2022-11-20T05:56:42;6.10;99.90
22112;DHT22;11222;50.872;4.312;2022-11-20T05:59:07;6.20;99.90
22112;DHT22;11222;50.872;4.312;2022-11-20T06:01:33;6.10;99.90
22112;DHT22;11222;50.872;4.312;2022-11-20T06:04:01;6.20;99.90
22112;DHT22;11222;50.872;4.312;2022-11-20T06:06:27;6.10;99.90
22112;DHT22;11222;50.872;4.312;2022-11-20T06:08:53;5.90;99.90
22112;DHT22;11222;50.872;4.312;2022-11-20T06:11:19;6.00;99.90
22112;DHT22;11222;50.872;4.312;2022-11-20T06:13:45;6.10;99.90
22112;DHT22;11222;50.872;4.312;2022-11-20T06:16:13;6.20;99.90
22112;DHT22;11222;50.872;4.312;2022-11-20T06:18:40;6.30;99.90
22112;DHT22;11222;50.872;4.312;2022-11-20T06:21:07;6.30;99.90
22112;DHT22;11222;50.872;4.312;2022-11-20T06:23:34;6.40;99.90
22112;DHT22;11222;50.872;4.312;2022-11-20T06:26:11;6.40;99.90
22112;DHT22;11222;50.872;4.312;2022-11-20T06:28:37;6.50;99.90
22112;DHT22;11222;50.872;4.312;2022-11-20T06:31:04;6.60;99.90
22112;DHT22;11222;50.872;4.312;2022-11-20T06:33:30;6.60;99.90
22112;DHT22;11222;50.872;4.312;2022-11-20T06:35:57;6.60;99.90
22112;DHT22;11222;50.872;4.312;2022-11-20T06:38:27;6.60;99.90
22112;DHT22;11222;50.872;4.312;2022-11-20T06:40:53;6.60;99.90
22112;DHT22;11222;50.872;4.312;2022-11-20T06:43:19;6.70;99.90
22112;DHT22;11222;50.872;4.312;2022-11-20T06:45:45;6.80;99.90
22112;DHT22;11222;50.872;4.312;2022-11-20T06:48:10;6.80;99.90
22112;DHT22;11222;50.872;4.312;2022-11-20T06:50:37;6.80;99.90
22112;DHT22;11222;50.872;4.312;2022-11-20T06:53:03;6.90;99.90
22112;DHT22;11222;50.872;4.312;2022-11-20T06:55:31;6.90;99.90
22112;DHT22;11222;50.872;4.312;2022-11-20T06:57:56;6.90;99.90
22112;DHT22;11222;50.872;4.312;2022-11-20T07:00:22;6.80;99.90
22112;DHT22;11222;50.872;4.312;2022-11-20T07:02:48;6.90;99.90
22112;DHT22;11222;50.872;4.312;2022-11-20T07:05:14;6.80;99.90
22112;DHT22;11222;50.872;4.312;2022-11-20T07:07:39;6.90;99.90
22112;DHT22;11222;50.872;4.312;2022-11-20T07:10:05;6.80;99.90
22112;DHT22;11222;50.872;4.312;2022-11-20T07:12:32;6.80;99.90
22112;DHT22;11222;50.872;4.312;2022-11-20T07:14:58;6.80;99.90
22112;DHT22;11222;50.872;4.312;2022-11-20T07:17:24;6.70;99.90
22112;DHT22;11222;50.872;4.312;2022-11-20T07:19:49;6.70;99.90
22112;DHT22;11222;50.872;4.312;2022-11-20T07:22:15;6.70;99.90
22112;DHT22;11222;50.872;4.312;2022-11-20T07:24:41;6.80;99.90
22112;DHT22;11222;50.872;4.312;2022-11-20T07:27:06;6.70;99.90
22112;DHT22;11222;50.872;4.312;2022-11-20T07:29:32;6.70;99.90
22112;DHT22;11222;50.872;4.312;2022-11-20T07:31:58;6.80;99.90
22112;DHT22;11222;50.872;4.312;2022-11-20T07:34:23;7.00;99.90
22112;DHT22;11222;50.872;4.312;2022-11-20T07:36:49;6.90;99.90
22112;DHT22;11222;50.872;4.312;2022-11-20T07:39:15;6.70;99.90
22112;DHT22;11222;50.872;4.312;2022-11-20T07:41:40;6.40;99.90
22112;DHT22;11222;50.872;4.312;2022-11-20T07:44:06;6.30;99.90
22112;DHT22;11222;50.872;4.312;2022-11-20T07:46:32;6.30;99.90
22112;DHT22;11222;50.872;4.312;2022-11-20T07:48:57;6.50;99.90
22112;DHT22;11222;50.872;4.312;2022-11-20T07:51:23;6.60;99.90
22112;DHT22;11222;50.872;4.312;2022-11-20T07:53:52;6.80;99.90
22112;DHT22;11222;50.872;4.312;2022-11-20T07:56:18;6.90;99.90
22112;DHT22;11222;50.872;4.312;2022-11-20T07:58:44;6.80;99.90
22112;DHT22;11222;50.872;4.312;2022-11-20T08:01:10;6.70;99.90
22112;DHT22;11222;50.872;4.312;2022-11-20T08:03:36;6.90;99.90
22112;DHT22;11222;50.872;4.312;2022-11-20T08:06:04;7.20;99.90
22112;DHT22;11222;50.872;4.312;2022-11-20T08:08:30;7.30;99.90
22112;DHT22;11222;50.872;4.312;2022-11-20T08:10:57;7.40;99.90
22112;DHT22;11222;50.872;4.312;2022-11-20T08:13:43;7.60;99.90
22112;DHT22;11222;50.872;4.312;2022-11-20T08:16:27;7.70;99.90
22112;DHT22;11222;50.872;4.312;2022-11-20T08:18:53;7.40;99.90
22112;DHT22;11222;50.872;4.312;2022-11-20T08:21:19;7.40;99.90
22112;DHT22;11222;50.872;4.312;2022-11-20T08:23:45;7.40;99.90
22112;DHT22;11222;50.872;4.312;2022-11-20T08:26:12;7.40;99.90
22112;DHT22;11222;50.872;4.312;2022-11-20T08:28:37;7.40;99.90
22112;DHT22;11222;50.872;4.312;2022-11-20T08:31:04;7.50;99.90
22112;DHT22;11222;50.872;4.312;2022-11-20T08:33:30;7.30;99.90
22112;DHT22;11222;50.872;4.312;2022-11-20T08:36:02;7.20;99.90
22112;DHT22;11222;50.872;4.312;2022-11-20T08:38:28;7.30;99.90
22112;DHT22;11222;50.872;4.312;2022-11-20T08:41:01;7.40;99.90
22112;DHT22;11222;50.872;4.312;2022-11-20T08:43:48;7.60;99.90
22112;DHT22;11222;50.872;4.312;2022-11-20T08:46:14;7.60;99.90
22112;DHT22;11222;50.872;4.312;2022-11-20T08:48:40;7.70;99.90
22112;DHT22;11222;50.872;4.312;2022-11-20T08:51:06;7.70;99.90
22112;DHT22;11222;50.872;4.312;2022-11-20T08:53:32;7.80;99.90
22112;DHT22;11222;50.872;4.312;2022-11-20T08:55:58;7.70;99.90
22112;DHT22;11222;50.872;4.312;2022-11-20T08:58:24;7.80;99.90
22112;DHT22;11222;50.872;4.312;2022-11-20T09:00:50;7.90;99.90
22112;DHT22;11222;50.872;4.312;2022-11-20T09:03:15;8.10;99.90
22112;DHT22;11222;50.872;4.312;2022-11-20T09:05:41;8.00;99.90
22112;DHT22;11222;50.872;4.312;2022-11-20T09:08:08;8.00;99.90
22112;DHT22;11222;50.872;4.312;2022-11-20T09:10:34;8.10;99.90
22112;DHT22;11222;50.872;4.312;2022-11-20T09:12:59;8.10;99.90
22112;DHT22;11222;50.872;4.312;2022-11-20T09:15:25;8.00;99.90
22112;DHT22;11222;50.872;4.312;2022-11-20T09:17:58;8.10;99.90
22112;DHT22;11222;50.872;4.312;2022-11-20T09:20:24;8.20;99.90
22112;DHT22;11222;50.872;4.312;2022-11-20T09:22:50;8.20;99.90
22112;DHT22;11222;50.872;4.312;2022-11-20T09:25:16;8.20;99.90
22112;DHT22;11222;50.872;4.312;2022-11-20T09:27:41;8.30;99.90
22112;DHT22;11222;50.872;4.312;2022-11-20T09:30:09;8.20;99.90
22112;DHT22;11222;50.872;4.312;2022-11-20T09:32:35;8.30;99.90
22112;DHT22;11222;50.872;4.312;2022-11-20T09:35:01;8.40;99.90
22112;DHT22;11222;50.872;4.312;2022-11-20T09:37:27;8.60;99.90
22112;DHT22;11222;50.872;4.312;2022-11-20T09:39:53;8.60;99.90
22112;DHT22;11222;50.872;4.312;2022-11-20T09:42:32;8.60;99.90
22112;DHT22;11222;50.872;4.312;2022-11-20T09:51:07;9.20;99.90
22112;DHT22;11222;50.872;4.312;2022-11-20T09:54:05;9.00;99.90
22112;DHT22;11222;50.872;4.312;2022-11-20T09:56:35;9.10;99.90
22112;DHT22;11222;50.872;4.312;2022-11-20T09:59:04;9.30;99.90
22112;DHT22;11222;50.872;4.312;2022-11-20T10:01:35;9.20;99.90
22112;DHT22;11222;50.872;4.312;2022-11-20T10:06:37;9.30;99.90
22112;DHT22;11222;50.872;4.312;2022-11-20T10:14:27;8.90;99.90
22112;DHT22;11222;50.872;4.312;2022-11-20T10:23:02;9.30;99.90
22112;DHT22;11222;50.872;4.312;2022-11-20T10:25:39;9.40;99.90
22112;DHT22;11222;50.872;4.312;2022-11-20T10:31:00;9.60;99.90
22112;DHT22;11222;50.872;4.312;2022-11-20T10:33:31;9.80;99.90
22112;DHT22;11222;50.872;4.312;2022-11-20T10:38:37;10.10;99.90
22112;DHT22;11222;50.872;4.312;2022-11-20T10:41:05;10.20;99.90
22112;DHT22;11222;50.872;4.312;2022-11-20T10:46:37;10.20;99.90
22112;DHT22;11222;50.872;4.312;2022-11-20T10:49:11;10.00;99.90
22112;DHT22;11222;50.872;4.312;2022-11-20T10:51:39;9.70;99.90
22112;DHT22;11222;50.872;4.312;2022-11-20T10:56:52;9.80;99.90
22112;DHT22;11222;50.872;4.312;2022-11-20T11:02:16;9.80;99.90
22112;DHT22;11222;50.872;4.312;2022-11-20T11:04:47;9.70;99.90
22112;DHT22;11222;50.872;4.312;2022-11-20T11:07:34;9.60;99.90
22112;DHT22;11222;50.872;4.312;2022-11-20T11:10:01;9.50;99.90
22112;DHT22;11222;50.872;4.312;2022-11-20T11:12:28;9.50;99.90
22112;DHT22;11222;50.872;4.312;2022-11-20T11:14:55;9.50;99.90
22112;DHT22;11222;50.872;4.312;2022-11-20T11:17:33;9.60;99.90
22112;DHT22;11222;50.872;4.312;2022-11-20T11:25:31;9.70;99.90
22112;DHT22;11222;50.872;4.312;2022-11-20T11:28:20;9.70;99.90
22112;DHT22;11222;50.872;4.312;2022-11-20T11:30:46;9.70;99.90
22112;DHT22;11222;50.872;4.312;2022-11-20T11:33:30;9.70;99.90
22112;DHT22;11222;50.872;4.312;2022-11-20T11:36:03;9.70;99.90
22112;DHT22;11222;50.872;4.312;2022-11-20T11:38:34;9.70;99.90
22112;DHT22;11222;50.872;4.312;2022-11-20T11:41:01;9.60;99.90
22112;DHT22;11222;50.872;4.312;2022-11-20T11:43:33;9.60;99.90
22112;DHT22;11222;50.872;4.312;2022-11-20T11:46:29;9.70;99.90
22112;DHT22;11222;50.872;4.312;2022-11-20T11:48:56;9.60;99.90
22112;DHT22;11222;50.872;4.312;2022-11-20T11:51:25;9.60;99.90
22112;DHT22;11222;50.872;4.312;2022-11-20T11:53:52;9.60;99.90
22112;DHT22;11222;50.872;4.312;2022-11-20T11:56:18;9.60;99.90
22112;DHT22;11222;50.872;4.312;2022-11-20T11:58:48;9.60;99.90
22112;DHT22;11222;50.872;4.312;2022-11-20T12:06:26;9.30;99.90
22112;DHT22;11222;50.872;4.312;2022-11-20T12:09:11;9.20;99.90
22112;DHT22;11222;50.872;4.312;2022-11-20T12:11:59;9.10;99.90
22112;DHT22;11222;50.872;4.312;2022-11-20T12:14:35;9.10;99.90
22112;DHT22;11222;50.872;4.312;2022-11-20T12:17:02;9.20;99.90
22112;DHT22;11222;50.872;4.312;2022-11-20T12:19:35;9.10;99.90
22112;DHT22;11222;50.872;4.312;2022-11-20T12:30:32;8.90;99.90
22112;DHT22;11222;50.872;4.312;2022-11-20T12:38:14;8.90;99.90
22112;DHT22;11222;50.872;4.312;2022-11-20T12:40:55;9.00;99.90
22112;DHT22;11222;50.872;4.312;2022-11-20T12:43:27;9.00;99.90
22112;DHT22;11222;50.872;4.312;2022-11-20T12:46:23;9.00;99.90
22112;DHT22;11222;50.872;4.312;2022-11-20T13:07:32;9.40;99.90
22112;DHT22;11222;50.872;4.312;2022-11-20T13:09:59;9.40;99.90
22112;DHT22;11222;50.872;4.312;2022-11-20T13:12:36;9.20;99.90
22112;DHT22;11222;50.872;4.312;2022-11-20T13:17:55;9.20;99.90
22112;DHT22;11222;50.872;4.312;2022-11-20T13:20:23;9.10;99.90
22112;DHT22;11222;50.872;4.312;2022-11-20T13:22:56;9.10;99.90
22112;DHT22;11222;50.872;4.312;2022-11-20T13:27:55;9.00;99.90
22112;DHT22;11222;50.872;4.312;2022-11-20T13:30:23;9.00;99.90
22112;DHT22;11222;50.872;4.312;2022-11-20T13:35:53;8.70;99.90
22112;DHT22;11222;50.872;4.312;2022-11-20T13:38:20;8.70;99.90
22112;DHT22;11222;50.872;4.312;2022-11-20T13:40:56;8.70;99.90
22112;DHT22;11222;50.872;4.312;2022-11-20T13:43:37;8.70;99.90
22112;DHT22;11222;50.872;4.312;2022-11-20T13:46:08;8.70;99.90
22112;DHT22;11222;50.872;4.312;2022-11-20T13:48:40;8.80;99.90
22112;DHT22;11222;50.872;4.312;2022-11-20T13:51:09;8.80;99.90
22112;DHT22;11222;50.872;4.312;2022-11-20T14:00:21;8.80;99.90
22112;DHT22;11222;50.872;4.312;2022-11-20T14:03:09;8.80;99.90
22112;DHT22;11222;50.872;4.312;2022-11-20T14:05:45;8.80;99.90
22112;DHT22;11222;50.872;4.312;2022-11-20T14:08:21;8.90;99.90
22112;DHT22;11222;50.872;4.312;2022-11-20T14:10:48;8.80;99.90
22112;DHT22;11222;50.872;4.312;2022-11-20T14:13:19;8.70;99.90
22112;DHT22;11222;50.872;4.312;2022-11-20T14:15:45;8.70;99.90
22112;DHT22;11222;50.872;4.312;2022-11-20T14:18:19;8.70;99.90
22112;DHT22;11222;50.872;4.312;2022-11-20T14:20:45;8.70;99.90
22112;DHT22;11222;50.872;4.312;2022-11-20T14:23:11;8.70;99.90
22112;DHT22;11222;50.872;4.312;2022-11-20T14:25:37;8.60;99.90
22112;DHT22;11222;50.872;4.312;2022-11-20T14:28:11;8.60;99.90
22112;DHT22;11222;50.872;4.312;2022-11-20T14:30:47;8.60;99.90
22112;DHT22;11222;50.872;4.312;2022-11-20T14:33:15;8.60;99.90
22112;DHT22;11222;50.872;4.312;2022-11-20T14:35:50;8.60;99.90
22112;DHT22;11222;50.872;4.312;2022-11-20T14:38:18;8.60;99.90
22112;DHT22;11222;50.872;4.312;2022-11-20T14:40:45;8.60;99.90
22112;DHT22;11222;50.872;4.312;2022-11-20T14:43:25;8.70;99.90
22112;DHT22;11222;50.872;4.312;2022-11-20T14:45:59;8.70;99.90
22112;DHT22;11222;50.872;4.312;2022-11-20T14:48:39;8.70;99.90
22112;DHT22;11222;50.872;4.312;2022-11-20T14:51:05;8.70;99.90
22112;DHT22;11222;50.872;4.312;2022-11-20T14:53:31;8.70;99.90
22112;DHT22;11222;50.872;4.312;2022-11-20T14:56:02;8.70;99.90
22112;DHT22;11222;50.872;4.312;2022-11-20T14:58:30;8.70;99.90
22112;DHT22;11222;50.872;4.312;2022-11-20T15:01:05;8.70;99.90
22112;DHT22;11222;50.872;4.312;2022-11-20T15:03:40;8.70;99.90
22112;DHT22;11222;50.872;4.312;2022-11-20T15:06:09;8.80;99.90
22112;DHT22;11222;50.872;4.312;2022-11-20T15:08:36;8.80;99.90
22112;DHT22;11222;50.872;4.312;2022-11-20T15:11:02;8.90;99.90
22112;DHT22;11222;50.872;4.312;2022-11-20T15:13:39;8.90;99.90
22112;DHT22;11222;50.872;4.312;2022-11-20T15:16:18;8.90;99.90
22112;DHT22;11222;50.872;4.312;2022-11-20T15:18:45;8.90;99.90
22112;DHT22;11222;50.872;4.312;2022-11-20T15:21:13;9.00;99.90
22112;DHT22;11222;50.872;4.312;2022-11-20T15:23:41;9.00;99.90
22112;DHT22;11222;50.872;4.312;2022-11-20T15:26:08;9.10;99.90
22112;DHT22;11222;50.872;4.312;2022-11-20T15:28:36;9.10;99.90
22112;DHT22;11222;50.872;4.312;2022-11-20T15:31:04;9.00;99.90
22112;DHT22;11222;50.872;4.312;2022-11-20T15:33:31;9.10;99.90
22112;DHT22;11222;50.872;4.312;2022-11-20T15:35:57;9.10;99.90
22112;DHT22;11222;50.872;4.312;2022-11-20T15:38:24;9.10;99.90
22112;DHT22;11222;50.872;4.312;2022-11-20T15:40:51;9.10;99.90
22112;DHT22;11222;50.872;4.312;2022-11-20T15:43:17;9.10;99.90
22112;DHT22;11222;50.872;4.312;2022-11-20T15:45:47;9.10;99.90
22112;DHT22;11222;50.872;4.312;2022-11-20T15:48:31;9.10;99.90
22112;DHT22;11222;50.872;4.312;2022-11-20T15:53:45;9.10;99.90
22112;DHT22;11222;50.872;4.312;2022-11-20T15:56:12;9.00;99.90
22112;DHT22;11222;50.872;4.312;2022-11-20T15:58:38;9.10;99.90
22112;DHT22;11222;50.872;4.312;2022-11-20T16:01:04;9.10;99.90
22112;DHT22;11222;50.872;4.312;2022-11-20T16:03:31;9.20;99.90
22112;DHT22;11222;50.872;4.312;2022-11-20T16:05:57;9.20;99.90
22112;DHT22;11222;50.872;4.312;2022-11-20T16:08:23;9.20;99.90
22112;DHT22;11222;50.872;4.312;2022-11-20T16:10:49;9.20;99.90
22112;DHT22;11222;50.872;4.312;2022-11-20T16:13:16;9.20;99.90
22112;DHT22;11222;50.872;4.312;2022-11-20T16:16:07;9.20;99.90
22112;DHT22;11222;50.872;4.312;2022-11-20T16:18:35;9.10;99.90
22112;DHT22;11222;50.872;4.312;2022-11-20T16:21:01;9.10;99.90
22112;DHT22;11222;50.872;4.312;2022-11-20T16:23:27;9.10;99.90
22112;DHT22;11222;50.872;4.312;2022-11-20T16:25:54;9.00;99.90
22112;DHT22;11222;50.872;4.312;2022-11-20T16:28:19;9.00;99.90
22112;DHT22;11222;50.872;4.312;2022-11-20T16:30:46;9.00;99.90
22112;DHT22;11222;50.872;4.312;2022-11-20T16:33:16;9.00;99.90
22112;DHT22;11222;50.872;4.312;2022-11-20T16:35:45;9.00;99.90
22112;DHT22;11222;50.872;4.312;2022-11-20T16:38:11;9.00;99.90
22112;DHT22;11222;50.872;4.312;2022-11-20T16:40:36;9.00;99.90
22112;DHT22;11222;50.872;4.312;2022-11-20T16:43:09;9.00;99.90
22112;DHT22;11222;50.872;4.312;2022-11-20T16:45:40;9.10;99.90
22112;DHT22;11222;50.872;4.312;2022-11-20T16:48:06;9.10;99.90
22112;DHT22;11222;50.872;4.312;2022-11-20T16:50:32;9.10;99.90
22112;DHT22;11222;50.872;4.312;2022-11-20T16:52:58;9.10;99.90
22112;DHT22;11222;50.872;4.312;2022-11-20T16:55:23;9.10;99.90
22112;DHT22;11222;50.872;4.312;2022-11-20T16:57:49;9.10;99.90
22112;DHT22;11222;50.872;4.312;2022-11-20T17:00:15;9.00;99.90
22112;DHT22;11222;50.872;4.312;2022-11-20T17:02:41;8.90;99.90
22112;DHT22;11222;50.872;4.312;2022-11-20T17:05:07;8.90;99.90
22112;DHT22;11222;50.872;4.312;2022-11-20T17:07:33;9.00;99.90
22112;DHT22;11222;50.872;4.312;2022-11-20T17:09:59;9.00;99.90
22112;DHT22;11222;50.872;4.312;2022-11-20T17:12:25;9.10;99.90
22112;DHT22;11222;50.872;4.312;2022-11-20T17:14:51;9.10;99.90
22112;DHT22;11222;50.872;4.312;2022-11-20T17:17:16;9.10;99.90
22112;DHT22;11222;50.872;4.312;2022-11-20T17:19:42;9.20;99.90
22112;DHT22;11222;50.872;4.312;2022-11-20T17:22:08;9.30;99.90
22112;DHT22;11222;50.872;4.312;2022-11-20T17:24:34;9.40;99.90
22112;DHT22;11222;50.872;4.312;2022-11-20T17:26:59;9.40;99.90
22112;DHT22;11222;50.872;4.312;2022-11-20T17:29:25;9.50;99.90
22112;DHT22;11222;50.872;4.312;2022-11-20T17:31:52;9.60;99.90